createdAt,value
2018-11-23T00:00:11.030Z,28.60
2018-11-23T00:01:11.012Z,31.40
2018-11-23T00:02:10.994Z,26.90
2018-11-23T00:03:10.968Z,28.50
2018-11-23T00:04:10.953Z,29.20
2018-11-23T00:05:10.931Z,31.00
2018-11-23T00:06:10.912Z,30.90
2018-11-23T00:07:10.900Z,30.20
2018-11-23T00:08:10.865Z,27.50
2018-11-23T00:09:10.845Z,29.40
2018-11-23T00:10:11.264Z,29.00
2018-11-23T00:11:10.809Z,31.70
2018-11-23T00:12:10.789Z,27.50
2018-11-23T00:13:10.759Z,29.80
2018-11-23T00:14:10.752Z,34.70
2018-11-23T00:15:10.734Z,34.50
2018-11-23T00:16:10.706Z,35.30
2018-11-23T00:17:10.687Z,31.60
2018-11-23T00:18:10.660Z,30.80
2018-11-23T00:19:10.648Z,29.80
2018-11-23T00:20:10.627Z,28.50
2018-11-23T00:21:10.613Z,24.30
2018-11-23T00:22:10.587Z,27.90
2018-11-23T00:23:10.563Z,28.20
2018-11-23T00:24:10.552Z,25.10
2018-11-23T00:25:10.526Z,24.00
2018-11-23T00:26:10.509Z,24.90
2018-11-23T00:27:10.488Z,21.00
2018-11-23T00:28:10.468Z,21.60
2018-11-23T00:29:10.433Z,22.00
2018-11-23T00:30:10.410Z,22.50
2018-11-23T00:31:10.405Z,23.10
2018-11-23T00:32:10.391Z,21.40
2018-11-23T00:33:10.362Z,21.10
2018-11-23T00:34:10.345Z,18.70
2018-11-23T00:35:10.314Z,20.90
2018-11-23T00:36:10.294Z,21.60
2018-11-23T00:37:10.287Z,23.70
2018-11-23T00:38:10.268Z,21.90
2018-11-23T00:39:10.229Z,25.70
2018-11-23T00:40:10.225Z,24.40
2018-11-23T00:41:10.205Z,22.50
2018-11-23T00:42:10.186Z,20.50
2018-11-23T00:43:10.162Z,25.00
2018-11-23T00:44:10.145Z,29.30
2018-11-23T00:45:10.121Z,24.80
2018-11-23T00:46:10.098Z,28.10
2018-11-23T00:47:10.079Z,27.30
2018-11-23T00:48:10.064Z,25.70
2018-11-23T00:49:10.027Z,34.70
2018-11-23T00:50:10.017Z,34.00
2018-11-23T00:51:09.994Z,29.80
2018-11-23T00:52:09.978Z,37.70
2018-11-23T00:53:09.960Z,35.10
2018-11-23T00:54:43.141Z,36.90
2018-11-23T00:55:09.900Z,32.60
2018-11-23T00:56:09.903Z,39.90
2018-11-23T00:57:09.884Z,35.20
2018-11-23T00:58:09.842Z,35.10
2018-11-23T00:59:09.834Z,34.50
2018-11-23T01:00:09.817Z,35.10
2018-11-23T01:01:09.797Z,30.20
2018-11-23T01:02:09.778Z,31.40
2018-11-23T01:03:09.750Z,34.60
2018-11-23T01:04:09.735Z,38.30
2018-11-23T01:05:09.723Z,39.90
2018-11-23T01:06:09.698Z,37.20
2018-11-23T01:07:09.673Z,37.90
2018-11-23T01:08:09.659Z,39.00
2018-11-23T01:09:09.633Z,35.90
2018-11-23T01:10:09.613Z,39.60
2018-11-23T01:11:09.594Z,37.00
2018-11-23T01:12:09.579Z,37.80
2018-11-23T01:13:09.550Z,37.90
2018-11-23T01:14:09.518Z,33.80
2018-11-23T01:15:09.517Z,35.80
2018-11-23T01:16:09.489Z,39.70
2018-11-23T01:17:09.474Z,35.70
2018-11-23T01:18:09.458Z,31.90
2018-11-23T01:19:09.429Z,38.00
2018-11-23T01:20:09.414Z,33.80
2018-11-23T01:21:09.396Z,36.20
2018-11-23T01:22:09.369Z,32.20
2018-11-23T01:23:09.350Z,31.70
2018-11-23T01:24:09.330Z,30.40
2018-11-23T01:25:09.309Z,32.60
2018-11-23T01:26:09.287Z,32.60
2018-11-23T01:27:09.272Z,31.80
2018-11-23T01:28:09.249Z,29.60
2018-11-23T01:29:09.224Z,31.20
2018-11-23T01:30:09.207Z,28.00
2018-11-23T01:31:09.187Z,26.80
2018-11-23T01:32:09.172Z,29.80
2018-11-23T01:33:09.143Z,29.20
2018-11-23T01:34:09.130Z,28.40
2018-11-23T01:35:09.109Z,28.90
2018-11-23T01:36:09.080Z,27.10
2018-11-23T01:37:09.057Z,27.60
2018-11-23T01:38:09.049Z,27.50
2018-11-23T01:39:09.023Z,25.90
2018-11-23T01:40:09.006Z,25.30
2018-11-23T01:41:08.991Z,29.00
2018-11-23T01:42:08.968Z,28.70
2018-11-23T01:43:08.943Z,28.50
2018-11-23T01:44:08.918Z,32.10
2018-11-23T01:45:08.899Z,33.90
2018-11-23T01:46:08.868Z,36.80
2018-11-23T01:47:08.854Z,53.10
2018-11-23T01:48:08.845Z,53.10
2018-11-23T01:49:08.820Z,62.50
2018-11-23T01:50:08.802Z,61.70
2018-11-23T01:51:08.784Z,51.10
2018-11-23T01:52:08.765Z,49.70
2018-11-23T01:53:08.746Z,52.00
2018-11-23T01:54:08.709Z,56.40
2018-11-23T01:55:08.702Z,50.60
2018-11-23T01:56:08.685Z,61.10
2018-11-23T01:57:08.663Z,60.50
2018-11-23T01:58:08.653Z,40.40
2018-11-23T01:59:08.618Z,37.40
2018-11-23T02:00:08.599Z,34.90
2018-11-23T02:01:08.579Z,41.70
2018-11-23T02:02:08.561Z,39.30
2018-11-23T02:03:08.534Z,43.70
2018-11-23T02:04:08.524Z,46.30
2018-11-23T02:05:08.498Z,40.00
2018-11-23T02:06:08.477Z,36.70
2018-11-23T02:07:08.456Z,43.10
2018-11-23T02:08:08.444Z,28.80
2018-11-23T02:09:08.416Z,25.70
2018-11-23T02:10:08.378Z,20.70
2018-11-23T02:11:08.360Z,20.60
2018-11-23T02:12:08.360Z,19.80
2018-11-23T02:13:08.332Z,21.40
2018-11-23T02:14:08.318Z,20.00
2018-11-23T02:15:08.300Z,19.50
2018-11-23T02:16:08.271Z,16.80
2018-11-23T02:17:08.257Z,20.10
2018-11-23T02:18:08.236Z,18.50
2018-11-23T02:19:08.220Z,17.00
2018-11-23T02:20:08.193Z,16.50
2018-11-23T02:21:08.169Z,18.10
2018-11-23T02:22:08.154Z,15.50
2018-11-23T02:23:08.133Z,13.80
2018-11-23T02:24:08.101Z,17.40
2018-11-23T02:25:08.096Z,16.20
2018-11-23T02:26:08.070Z,16.10
2018-11-23T02:27:08.050Z,15.40
2018-11-23T02:28:08.014Z,19.60
2018-11-23T02:29:08.000Z,13.80
2018-11-23T02:30:07.996Z,14.10
2018-11-23T02:31:07.958Z,17.20
2018-11-23T02:32:07.945Z,16.20
2018-11-23T02:33:41.132Z,14.70
2018-11-23T02:34:07.915Z,16.60
2018-11-23T02:35:07.883Z,14.60
2018-11-23T02:36:07.871Z,16.00
2018-11-23T02:37:07.855Z,17.20
2018-11-23T02:38:07.827Z,16.20
2018-11-23T02:39:07.807Z,17.90
2018-11-23T02:40:07.794Z,16.70
2018-11-23T02:41:07.771Z,21.00
2018-11-23T02:42:07.744Z,18.60
2018-11-23T02:43:07.725Z,16.80
2018-11-23T02:44:07.709Z,16.40
2018-11-23T02:45:07.682Z,15.50
2018-11-23T02:46:07.662Z,17.90
2018-11-23T02:47:07.642Z,14.90
2018-11-23T02:48:07.613Z,15.80
2018-11-23T02:49:07.590Z,15.20
2018-11-23T02:50:07.566Z,13.70
2018-11-23T02:51:07.558Z,16.90
2018-11-23T02:52:07.539Z,17.50
2018-11-23T02:53:07.522Z,14.00
2018-11-23T02:54:07.499Z,18.00
2018-11-23T02:55:07.479Z,15.10
2018-11-23T02:56:07.463Z,17.00
2018-11-23T02:57:07.437Z,14.60
2018-11-23T02:58:07.420Z,15.50
2018-11-23T02:59:07.397Z,13.30
2018-11-23T03:00:07.373Z,14.80
2018-11-23T03:01:07.354Z,14.00
2018-11-23T03:02:07.343Z,11.50
2018-11-23T03:03:07.315Z,11.70
2018-11-23T03:04:07.294Z,13.50
2018-11-23T03:05:07.273Z,13.20
2018-11-23T03:06:07.253Z,13.70
2018-11-23T03:07:07.233Z,13.40
2018-11-23T03:08:07.209Z,11.70
2018-11-23T03:09:07.172Z,11.70
2018-11-23T03:10:07.165Z,12.20
2018-11-23T03:11:07.149Z,11.90
2018-11-23T03:12:07.112Z,12.70
2018-11-23T03:13:07.109Z,13.00
2018-11-23T03:14:07.068Z,12.70
2018-11-23T03:15:07.067Z,11.00
2018-11-23T03:16:07.042Z,11.40
2018-11-23T03:17:07.026Z,13.50
2018-11-23T03:18:07.004Z,16.80
2018-11-23T03:19:06.984Z,18.00
2018-11-23T03:20:06.969Z,17.60
2018-11-23T03:21:06.942Z,14.90
2018-11-23T03:22:06.923Z,16.70
2018-11-23T03:23:06.905Z,16.70
2018-11-23T03:24:06.885Z,17.00
2018-11-23T03:25:06.852Z,16.00
2018-11-23T03:26:06.824Z,16.30
2018-11-23T03:27:06.809Z,16.40
2018-11-23T03:28:06.793Z,16.80
2018-11-23T03:29:06.774Z,16.90
2018-11-23T03:30:06.754Z,17.50
2018-11-23T03:31:12.231Z,16.80
2018-11-23T03:32:06.714Z,17.00
2018-11-23T03:33:06.690Z,18.90
2018-11-23T03:34:06.670Z,18.90
2018-11-23T03:35:06.637Z,19.80
2018-11-23T03:36:06.614Z,19.70
2018-11-23T03:37:06.613Z,18.00
2018-11-23T03:38:06.584Z,18.80
2018-11-23T03:39:06.573Z,20.80
2018-11-23T03:40:06.546Z,20.40
2018-11-23T03:41:06.523Z,23.60
2018-11-23T03:42:06.552Z,26.10
2018-11-23T03:43:06.476Z,20.30
2018-11-23T03:44:06.469Z,19.50
2018-11-23T03:45:06.446Z,22.10
2018-11-23T03:46:06.422Z,21.60
2018-11-23T03:47:06.411Z,18.60
2018-11-23T03:48:06.386Z,21.90
2018-11-23T03:49:06.364Z,19.60
2018-11-23T03:50:06.349Z,18.10
2018-11-23T03:51:06.320Z,21.80
2018-11-23T03:52:06.296Z,21.00
2018-11-23T03:53:06.273Z,19.20
2018-11-23T03:54:06.242Z,18.20
2018-11-23T03:55:06.238Z,17.60
2018-11-23T03:56:06.216Z,20.10
2018-11-23T03:57:06.198Z,17.60
2018-11-23T03:58:06.175Z,18.30
2018-11-23T03:59:06.162Z,17.90
2018-11-23T04:00:06.131Z,18.90
2018-11-23T04:01:06.115Z,19.60
2018-11-23T04:02:06.101Z,17.80
2018-11-23T04:03:06.074Z,17.80
2018-11-23T04:04:06.055Z,16.90
2018-11-23T04:05:06.030Z,16.80
2018-11-23T04:06:06.008Z,19.70
2018-11-23T04:07:05.988Z,14.40
2018-11-23T04:08:05.971Z,17.50
2018-11-23T04:09:05.948Z,14.20
2018-11-23T04:10:05.925Z,12.30
2018-11-23T04:11:05.893Z,15.90
2018-11-23T04:12:05.888Z,15.40
2018-11-23T04:13:05.857Z,14.50
2018-11-23T04:14:05.840Z,15.50
2018-11-23T04:15:05.823Z,16.10
2018-11-23T04:16:05.800Z,15.30
2018-11-23T04:17:05.763Z,14.70
2018-11-23T04:18:05.760Z,14.00
2018-11-23T04:19:05.717Z,13.40
2018-11-23T04:20:05.714Z,12.50
2018-11-23T04:21:05.690Z,15.20
2018-11-23T04:22:05.675Z,18.00
2018-11-23T04:23:05.649Z,12.40
2018-11-23T04:24:05.633Z,13.90
2018-11-23T04:25:05.612Z,12.60
2018-11-23T04:26:05.588Z,13.10
2018-11-23T04:27:05.570Z,11.50
2018-11-23T04:28:05.547Z,13.30
2018-11-23T04:29:05.508Z,12.70
2018-11-23T04:30:05.491Z,14.60
2018-11-23T04:31:05.469Z,12.60
2018-11-23T04:32:05.467Z,12.60
2018-11-23T04:33:05.447Z,13.70
2018-11-23T04:34:05.409Z,13.40
2018-11-23T04:35:05.398Z,14.50
2018-11-23T04:36:05.374Z,15.50
2018-11-23T04:37:05.339Z,17.90
2018-11-23T04:38:05.335Z,16.10
2018-11-23T04:39:05.312Z,21.40
2018-11-23T04:40:05.287Z,17.20
2018-11-23T04:41:05.255Z,18.60
2018-11-23T04:42:05.252Z,20.60
2018-11-23T04:43:05.235Z,20.30
2018-11-23T04:44:05.210Z,20.60
2018-11-23T04:45:05.185Z,18.70
2018-11-23T04:46:05.160Z,20.70
2018-11-23T04:47:05.140Z,17.50
2018-11-23T04:48:05.121Z,22.60
2018-11-23T04:49:05.095Z,17.70
2018-11-23T04:50:05.078Z,22.90
2018-11-23T04:51:05.061Z,22.80
2018-11-23T04:52:05.035Z,23.40
2018-11-23T04:53:05.011Z,19.40
2018-11-23T04:54:04.996Z,22.60
2018-11-23T04:55:04.976Z,24.80
2018-11-23T04:56:04.934Z,19.70
2018-11-23T04:57:04.918Z,24.20
2018-11-23T04:58:04.894Z,23.90
2018-11-23T04:59:04.886Z,23.20
2018-11-23T05:00:04.864Z,22.70
2018-11-23T05:01:04.842Z,25.50
2018-11-23T05:02:04.822Z,27.60
2018-11-23T05:03:04.801Z,27.30
2018-11-23T05:04:04.779Z,24.20
2018-11-23T05:05:04.762Z,22.30
2018-11-23T05:06:04.735Z,23.20
2018-11-23T05:07:04.715Z,28.30
2018-11-23T05:08:04.695Z,24.50
2018-11-23T05:09:04.672Z,29.10
2018-11-23T05:10:04.653Z,27.20
2018-11-23T05:11:04.626Z,26.90
2018-11-23T05:12:04.611Z,26.70
2018-11-23T05:13:04.588Z,28.60
2018-11-23T05:14:04.561Z,29.40
2018-11-23T05:15:04.532Z,29.20
2018-11-23T05:16:04.512Z,26.10
2018-11-23T05:17:04.499Z,29.10
2018-11-23T05:18:04.473Z,32.70
2018-11-23T05:19:04.454Z,31.90
2018-11-23T05:20:04.419Z,33.30
2018-11-23T05:21:04.406Z,29.30
2018-11-23T05:22:04.390Z,30.90
2018-11-23T05:23:04.372Z,33.60
2018-11-23T05:24:04.347Z,30.40
2018-11-23T05:25:04.319Z,35.30
2018-11-23T05:26:04.307Z,35.80
2018-11-23T05:27:04.285Z,31.20
2018-11-23T05:28:04.268Z,34.40
2018-11-23T05:29:04.240Z,35.00
2018-11-23T05:30:04.224Z,27.90
2018-11-23T05:31:04.203Z,35.50
2018-11-23T05:32:04.165Z,33.80
2018-11-23T05:33:04.157Z,33.90
2018-11-23T05:34:04.135Z,32.40
2018-11-23T05:35:04.116Z,33.10
2018-11-23T05:36:04.095Z,29.90
2018-11-23T05:37:04.067Z,30.10
2018-11-23T05:38:04.035Z,31.50
2018-11-23T05:39:04.033Z,33.00
2018-11-23T05:40:04.000Z,29.70
2018-11-23T05:41:03.985Z,32.80
2018-11-23T05:42:03.948Z,31.60
2018-11-23T05:43:04.519Z,31.60
2018-11-23T05:44:03.930Z,32.20
2018-11-23T05:45:03.886Z,36.20
2018-11-23T05:46:03.877Z,37.60
2018-11-23T05:47:03.858Z,33.80
2018-11-23T05:48:03.841Z,36.00
2018-11-23T05:49:03.822Z,28.70
2018-11-23T05:50:03.782Z,35.80
2018-11-23T05:51:03.774Z,32.50
2018-11-23T05:52:03.757Z,33.60
2018-11-23T05:53:03.773Z,35.80
2018-11-23T05:54:03.709Z,33.10
2018-11-23T05:55:03.692Z,35.70
2018-11-23T05:56:03.652Z,38.00
2018-11-23T05:57:03.645Z,37.30
2018-11-23T05:58:03.674Z,35.90
2018-11-23T05:59:03.606Z,35.50
2018-11-23T06:00:03.586Z,41.80
2018-11-23T06:01:03.563Z,40.60
2018-11-23T06:02:03.544Z,37.10
2018-11-23T06:03:03.520Z,33.50
2018-11-23T06:04:03.498Z,38.50
2018-11-23T06:05:03.467Z,40.50
2018-11-23T06:06:03.453Z,32.40
2018-11-23T06:07:03.436Z,32.80
2018-11-23T06:08:03.413Z,36.80
2018-11-23T06:09:03.387Z,29.60
2018-11-23T06:10:03.374Z,33.00
2018-11-23T06:11:03.331Z,32.90
2018-11-23T06:12:03.325Z,34.00
2018-11-23T06:13:03.286Z,29.60
2018-11-23T06:14:03.272Z,29.70
2018-11-23T06:15:03.261Z,27.90
2018-11-23T06:16:03.230Z,29.80
2018-11-23T06:17:03.214Z,35.30
2018-11-23T06:18:03.193Z,29.50
2018-11-23T06:19:03.177Z,26.20
2018-11-23T06:20:03.412Z,24.80
2018-11-23T06:21:03.135Z,26.70
2018-11-23T06:22:03.108Z,28.30
2018-11-23T06:23:03.095Z,27.90
2018-11-23T06:24:03.068Z,24.60
2018-11-23T06:25:03.048Z,33.10
2018-11-23T06:26:03.031Z,28.30
2018-11-23T06:27:03.003Z,26.50
2018-11-23T06:28:02.982Z,32.00
2018-11-23T06:29:02.959Z,29.50
2018-11-23T06:30:02.931Z,30.00
2018-11-23T06:31:02.920Z,26.30
2018-11-23T06:32:02.885Z,28.80
2018-11-23T06:33:02.863Z,26.10
2018-11-23T06:34:02.851Z,28.00
2018-11-23T06:35:02.831Z,32.50
2018-11-23T06:36:02.813Z,32.10
2018-11-23T06:37:02.793Z,31.30
2018-11-23T06:38:02.766Z,29.90
2018-11-23T06:39:02.746Z,28.60
2018-11-23T06:40:02.733Z,27.60
2018-11-23T06:41:02.705Z,25.50
2018-11-23T06:42:02.680Z,22.70
2018-11-23T06:43:02.663Z,25.30
2018-11-23T06:44:02.646Z,22.70
2018-11-23T06:45:02.624Z,21.10
2018-11-23T06:46:02.596Z,24.20
2018-11-23T06:47:02.579Z,22.20
2018-11-23T06:48:02.559Z,20.20
2018-11-23T06:49:02.536Z,23.00
2018-11-23T06:50:02.509Z,20.50
2018-11-23T06:51:02.495Z,17.90
2018-11-23T06:52:02.467Z,17.30
2018-11-23T06:53:02.448Z,17.00
2018-11-23T06:54:02.419Z,15.30
2018-11-23T06:55:02.407Z,17.30
2018-11-23T06:56:02.366Z,18.00
2018-11-23T06:57:02.366Z,17.00
2018-11-23T06:58:02.329Z,15.40
2018-11-23T06:59:02.306Z,18.00
2018-11-23T07:00:02.298Z,12.10
2018-11-23T07:01:02.275Z,10.10
2018-11-23T07:02:02.254Z,12.60
2018-11-23T07:03:02.234Z,10.40
2018-11-23T07:04:02.213Z,8.80
2018-11-23T07:05:02.191Z,12.60
2018-11-23T07:06:02.172Z,11.30
2018-11-23T07:07:02.149Z,14.70
2018-11-23T07:08:02.113Z,12.70
2018-11-23T07:09:02.093Z,13.60
2018-11-23T07:10:02.067Z,12.30
2018-11-23T07:11:02.045Z,11.20
2018-11-23T07:12:02.046Z,14.20
2018-11-23T07:13:02.018Z,13.10
2018-11-23T07:14:04.049Z,9.30
2018-11-23T07:15:01.977Z,12.80
2018-11-23T07:16:01.941Z,13.50
2018-11-23T07:17:01.920Z,12.10
2018-11-23T07:18:01.907Z,13.10
2018-11-23T07:19:01.873Z,15.70
2018-11-23T07:20:01.852Z,16.40
2018-11-23T07:21:01.841Z,15.00
2018-11-23T07:22:01.823Z,12.50
2018-11-23T07:23:01.812Z,15.30
2018-11-23T07:24:01.788Z,14.90
2018-11-23T07:25:01.764Z,13.90
2018-11-23T07:26:01.744Z,16.20
2018-11-23T07:27:01.723Z,15.30
2018-11-23T07:28:01.702Z,13.00
2018-11-23T07:29:01.675Z,15.60
2018-11-23T07:30:01.653Z,13.40
2018-11-23T07:31:02.399Z,12.20
2018-11-23T07:32:01.606Z,15.60
2018-11-23T07:33:01.591Z,12.00
2018-11-23T07:34:01.571Z,9.90
2018-11-23T07:35:01.545Z,12.10
2018-11-23T07:36:01.518Z,14.10
2018-11-23T07:37:01.490Z,15.20
2018-11-23T07:38:01.473Z,12.10
2018-11-23T07:39:01.467Z,11.70
2018-11-23T07:40:01.452Z,12.90
2018-11-23T07:41:01.420Z,13.80
2018-11-23T07:42:01.395Z,10.90
2018-11-23T07:43:01.383Z,10.50
2018-11-23T07:44:01.358Z,11.20
2018-11-23T07:45:01.332Z,10.70
2018-11-23T07:46:01.316Z,10.90
2018-11-23T07:47:01.294Z,12.20
2018-11-23T07:48:01.267Z,12.20
2018-11-23T07:49:01.250Z,9.20
2018-11-23T07:50:01.228Z,10.50
2018-11-23T07:51:01.207Z,6.80
2018-11-23T07:52:01.183Z,11.40
2018-11-23T07:53:01.165Z,8.50
2018-11-23T07:54:01.127Z,13.20
2018-11-23T07:55:01.125Z,10.40
2018-11-23T07:56:01.106Z,7.20
2018-11-23T07:57:01.074Z,10.00
2018-11-23T07:58:01.052Z,9.50
2018-11-23T07:59:01.036Z,6.70
2018-11-23T08:00:00.996Z,10.90
2018-11-23T08:01:00.985Z,7.70
2018-11-23T08:02:00.948Z,7.80
2018-11-23T08:03:00.935Z,7.20
2018-11-23T08:04:00.928Z,9.00
2018-11-23T08:05:00.891Z,9.90
2018-11-23T08:06:00.884Z,8.70
2018-11-23T08:07:00.860Z,7.60
2018-11-23T08:08:00.843Z,8.80
2018-11-23T08:09:00.822Z,8.00
2018-11-23T08:10:00.794Z,7.60
2018-11-23T08:11:00.775Z,9.50
2018-11-23T08:12:00.743Z,9.00
2018-11-23T08:13:00.721Z,10.60
2018-11-23T08:14:00.711Z,9.00
2018-11-23T08:15:00.688Z,11.80
2018-11-23T08:16:00.669Z,9.60
2018-11-23T08:17:00.647Z,11.70
2018-11-23T08:18:00.611Z,12.60
2018-11-23T08:19:00.602Z,10.80
2018-11-23T08:20:00.579Z,10.80
2018-11-23T08:21:00.542Z,11.50
2018-11-23T08:22:00.522Z,12.30
2018-11-23T08:23:00.508Z,11.50
2018-11-23T08:24:00.495Z,7.70
2018-11-23T08:25:00.457Z,13.40
2018-11-23T08:26:00.452Z,8.90
2018-11-23T08:27:00.432Z,10.30
2018-11-23T08:28:00.408Z,10.90
2018-11-23T08:29:00.388Z,11.70
2018-11-23T08:30:00.367Z,9.60
2018-11-23T08:31:00.347Z,8.80
2018-11-23T08:32:00.331Z,9.60
2018-11-23T08:33:00.303Z,8.80
2018-11-23T08:34:00.286Z,8.50
2018-11-23T08:35:00.266Z,7.00
2018-11-23T08:36:00.243Z,12.00
2018-11-23T08:37:00.218Z,7.00
2018-11-23T08:38:00.199Z,8.80
2018-11-23T08:39:04.691Z,8.40
2018-11-23T08:40:00.161Z,10.60
2018-11-23T08:41:00.124Z,9.30
2018-11-23T08:42:00.099Z,9.60
2018-11-23T08:43:00.077Z,12.70
2018-11-23T08:44:00.075Z,10.90
2018-11-23T08:45:00.071Z,13.90
2018-11-23T08:46:00.037Z,13.10
2018-11-23T08:47:00.041Z,9.30
2018-11-23T08:47:59.978Z,11.70
2018-11-23T08:48:59.976Z,13.20
2018-11-23T08:49:59.949Z,10.40
2018-11-23T08:50:59.940Z,10.50
2018-11-23T08:51:59.913Z,11.70
2018-11-23T08:52:59.903Z,12.80
2018-11-23T08:53:59.872Z,9.50
2018-11-23T08:54:59.853Z,8.70
2018-11-23T08:55:59.836Z,7.50
2018-11-23T08:56:59.808Z,8.20
2018-11-23T08:57:59.794Z,11.70
2018-11-23T08:58:59.769Z,11.20
2018-11-23T08:59:59.753Z,9.70
2018-11-23T09:00:59.733Z,8.00
2018-11-23T09:01:59.714Z,8.60
2018-11-23T09:02:59.700Z,10.60
2018-11-23T09:03:59.675Z,8.80
2018-11-23T09:04:59.648Z,8.10
2018-11-23T09:05:59.624Z,7.60
2018-11-23T09:06:59.620Z,10.30
2018-11-23T09:07:59.597Z,8.60
2018-11-23T09:08:59.582Z,8.10
2018-11-23T09:09:59.559Z,8.70
2018-11-23T09:10:59.548Z,10.40
2018-11-23T09:11:59.528Z,10.10
2018-11-23T09:12:59.515Z,9.40
2018-11-23T09:13:59.493Z,8.80
2018-11-23T09:14:59.470Z,9.10
2018-11-23T09:15:59.453Z,8.50
2018-11-23T09:16:59.417Z,9.50
2018-11-23T09:17:59.415Z,10.40
2018-11-23T09:18:59.398Z,9.60
2018-11-23T09:19:59.379Z,8.20
2018-11-23T09:20:59.358Z,8.10
2018-11-23T09:21:59.341Z,9.70
2018-11-23T09:22:59.332Z,8.80
2018-11-23T09:23:59.319Z,8.70
2018-11-23T09:24:59.285Z,9.50
2018-11-23T09:25:59.259Z,10.00
2018-11-23T09:26:59.243Z,10.20
2018-11-23T09:27:59.242Z,13.80
2018-11-23T09:28:59.208Z,11.10
2018-11-23T09:29:59.200Z,9.60
2018-11-23T09:30:59.184Z,9.60
2018-11-23T09:31:59.172Z,10.20
2018-11-23T09:32:59.152Z,9.70
2018-11-23T09:33:59.122Z,8.70
2018-11-23T09:34:59.118Z,11.90
2018-11-23T09:35:59.107Z,9.30
2018-11-23T09:36:59.082Z,10.60
2018-11-23T09:37:59.072Z,10.40
2018-11-23T09:38:59.053Z,12.30
2018-11-23T09:39:59.038Z,12.80
2018-11-23T09:40:59.015Z,8.00
2018-11-23T09:41:59.011Z,7.70
2018-11-23T09:42:58.972Z,7.20
2018-11-23T09:43:58.956Z,8.50
2018-11-23T09:44:58.944Z,8.60
2018-11-23T09:45:58.940Z,5.80
2018-11-23T09:46:58.912Z,8.00
2018-11-23T09:47:58.926Z,11.80
2018-11-23T09:48:58.895Z,7.40
2018-11-23T09:49:58.875Z,6.80
2018-11-23T09:50:58.875Z,8.20
2018-11-23T09:51:58.833Z,6.90
2018-11-23T09:52:58.826Z,7.10
2018-11-23T09:53:58.817Z,7.60
2018-11-23T09:54:58.798Z,7.60
2018-11-23T09:55:58.786Z,7.00
2018-11-23T09:56:58.768Z,8.50
2018-11-23T09:57:58.756Z,7.70
2018-11-23T09:58:58.736Z,5.60
2018-11-23T09:59:58.723Z,5.50
2018-11-23T10:00:58.705Z,4.80
2018-11-23T10:01:58.692Z,5.70
2018-11-23T10:02:58.743Z,5.80
2018-11-23T10:03:58.675Z,6.90
2018-11-23T10:04:58.651Z,6.60
2018-11-23T10:05:58.629Z,7.70
2018-11-23T10:06:58.611Z,5.30
2018-11-23T10:07:58.579Z,6.70
2018-11-23T10:08:58.582Z,7.60
2018-11-23T10:09:58.568Z,5.90
2018-11-23T10:10:58.546Z,6.60
2018-11-23T10:11:58.535Z,8.10
2018-11-23T10:12:58.516Z,7.10
2018-11-23T10:13:58.507Z,7.20
2018-11-23T10:14:58.490Z,7.10
2018-11-23T10:15:58.481Z,7.50
2018-11-23T10:16:58.460Z,5.70
2018-11-23T10:17:58.448Z,5.70
2018-11-23T10:18:58.439Z,6.40
2018-11-23T10:19:58.414Z,7.00
2018-11-23T10:20:58.385Z,6.20
2018-11-23T10:21:58.374Z,7.70
2018-11-23T10:22:58.372Z,7.10
2018-11-23T10:23:58.356Z,6.60
2018-11-23T10:24:58.336Z,4.70
2018-11-23T10:25:58.328Z,5.90
2018-11-23T10:26:58.311Z,5.70
2018-11-23T10:27:58.303Z,7.00
2018-11-23T10:28:58.281Z,5.40
2018-11-23T10:29:58.259Z,5.70
2018-11-23T10:30:58.258Z,5.70
2018-11-23T10:31:58.245Z,5.50
2018-11-23T10:32:58.225Z,4.20
2018-11-23T10:33:58.216Z,4.70
2018-11-23T10:34:58.188Z,5.80
2018-11-23T10:35:58.331Z,5.10
2018-11-23T10:36:58.174Z,4.40
2018-11-23T10:37:58.168Z,4.50
2018-11-23T10:38:58.145Z,5.10
2018-11-23T10:39:58.131Z,4.40
2018-11-23T10:40:58.129Z,7.90
2018-11-23T10:41:58.109Z,3.40
2018-11-23T10:42:58.092Z,3.90
2018-11-23T10:43:58.074Z,2.20
2018-11-23T10:44:58.047Z,3.00
2018-11-23T10:45:58.043Z,1.70
2018-11-23T10:46:58.047Z,3.10
2018-11-23T10:47:58.027Z,2.50
2018-11-23T10:48:58.003Z,4.00
2018-11-23T10:49:57.993Z,2.60
2018-11-23T10:50:57.964Z,2.90
2018-11-23T10:51:57.969Z,3.20
2018-11-23T10:52:57.949Z,2.60
2018-11-23T10:53:57.934Z,3.20
2018-11-23T10:54:57.922Z,3.10
2018-11-23T10:55:57.904Z,3.70
2018-11-23T10:56:57.901Z,3.20
2018-11-23T10:57:57.888Z,1.70
2018-11-23T10:58:57.899Z,2.40
2018-11-23T10:59:57.877Z,5.00
2018-11-23T11:00:57.840Z,4.90
2018-11-23T11:01:57.829Z,4.60
2018-11-23T11:02:57.811Z,3.10
2018-11-23T11:03:57.797Z,2.90
2018-11-23T11:04:57.768Z,1.70
2018-11-23T11:05:57.766Z,2.10
2018-11-23T11:06:57.750Z,2.80
2018-11-23T11:07:57.768Z,3.20
2018-11-23T11:08:57.728Z,4.40
2018-11-23T11:09:57.697Z,2.60
2018-11-23T11:10:57.692Z,2.50
2018-11-23T11:11:57.674Z,2.00
2018-11-23T11:12:57.652Z,2.20
2018-11-23T11:13:57.639Z,4.00
2018-11-23T11:14:57.634Z,3.10
2018-11-23T11:15:57.638Z,2.60
2018-11-23T11:16:57.613Z,3.30
2018-11-23T11:17:57.600Z,2.10
2018-11-23T11:18:57.590Z,2.80
2018-11-23T11:19:57.576Z,2.60
2018-11-23T11:20:57.562Z,4.20
2018-11-23T11:21:57.550Z,3.60
2018-11-23T11:22:57.540Z,3.40
2018-11-23T11:23:57.513Z,3.70
2018-11-23T11:24:57.507Z,3.30
2018-11-23T11:25:57.492Z,3.00
2018-11-23T11:26:57.467Z,2.20
2018-11-23T11:27:57.470Z,3.80
2018-11-23T11:28:57.457Z,3.50
2018-11-23T11:29:57.447Z,6.20
2018-11-23T11:30:57.429Z,3.90
2018-11-23T11:31:57.397Z,4.90
2018-11-23T11:32:57.392Z,3.40
2018-11-23T11:33:57.377Z,4.50
2018-11-23T11:34:57.365Z,4.00
2018-11-23T11:35:57.366Z,2.80
2018-11-23T11:36:57.352Z,5.10
2018-11-23T11:37:57.334Z,3.10
2018-11-23T11:38:57.315Z,2.60
2018-11-23T11:39:57.312Z,2.30
2018-11-23T11:40:57.309Z,3.00
2018-11-23T11:41:57.293Z,3.00
2018-11-23T11:42:57.275Z,4.10
2018-11-23T11:43:57.266Z,2.90
2018-11-23T11:44:57.260Z,1.80
2018-11-23T11:45:57.241Z,2.40
2018-11-23T11:46:57.231Z,2.60
2018-11-23T11:47:57.212Z,2.20
2018-11-23T11:48:57.204Z,2.10
2018-11-23T11:49:59.143Z,1.40
2018-11-23T11:50:57.174Z,3.80
2018-11-23T11:51:57.168Z,2.30
2018-11-23T11:52:57.141Z,2.30
2018-11-23T11:53:57.143Z,2.50
2018-11-23T11:54:57.119Z,1.60
2018-11-23T11:55:57.121Z,2.30
2018-11-23T11:56:57.197Z,2.80
2018-11-23T11:57:57.095Z,3.10
2018-11-23T11:58:57.080Z,2.50
2018-11-23T11:59:57.072Z,2.10
2018-11-23T12:00:57.059Z,2.80
2018-11-23T12:01:57.042Z,3.60
2018-11-23T12:02:57.035Z,4.50
2018-11-23T12:03:57.023Z,2.40
2018-11-23T12:04:57.100Z,2.10
2018-11-23T12:05:56.996Z,2.20
2018-11-23T12:06:56.986Z,2.20
2018-11-23T12:07:56.974Z,4.00
2018-11-23T12:08:56.948Z,2.40
2018-11-23T12:09:56.948Z,3.70
2018-11-23T12:10:56.938Z,2.90
2018-11-23T12:11:56.927Z,2.60
2018-11-23T12:12:56.916Z,1.80
2018-11-23T12:13:56.885Z,2.70
2018-11-23T12:14:56.892Z,2.70
2018-11-23T12:15:56.863Z,2.50
2018-11-23T12:16:56.868Z,3.50
2018-11-23T12:17:56.845Z,2.60
2018-11-23T12:18:56.827Z,4.10
2018-11-23T12:19:56.834Z,3.90
2018-11-23T12:20:56.814Z,3.00
2018-11-23T12:21:56.798Z,2.00
2018-11-23T12:22:56.794Z,4.70
2018-11-23T12:23:56.787Z,4.30
2018-11-23T12:24:56.770Z,2.50
2018-11-23T12:25:56.755Z,3.70
2018-11-23T12:26:56.748Z,3.50
2018-11-23T12:27:56.724Z,3.70
2018-11-23T12:28:56.724Z,5.60
2018-11-23T12:29:56.697Z,3.70
2018-11-23T12:30:56.690Z,3.70
2018-11-23T12:31:56.689Z,2.20
2018-11-23T12:32:56.662Z,2.60
2018-11-23T12:33:56.658Z,3.90
2018-11-23T12:34:56.654Z,2.40
2018-11-23T12:35:56.627Z,2.90
2018-11-23T12:36:56.633Z,4.90
2018-11-23T12:37:56.617Z,4.90
2018-11-23T12:38:56.603Z,2.50
2018-11-23T12:39:56.590Z,5.40
2018-11-23T12:40:56.586Z,4.70
2018-11-23T12:42:29.786Z,2.60
2018-11-23T12:42:56.560Z,7.00
2018-11-23T12:43:56.548Z,5.10
2018-11-23T12:44:56.544Z,4.70
2018-11-23T12:45:56.532Z,4.10
2018-11-23T12:46:56.515Z,7.60
2018-11-23T12:47:56.506Z,2.50
2018-11-23T12:48:56.498Z,3.60
2018-11-23T12:49:56.484Z,4.00
2018-11-23T12:50:56.480Z,3.60
2018-11-23T12:51:56.458Z,3.00
2018-11-23T12:52:56.451Z,3.40
2018-11-23T12:53:56.463Z,3.70
2018-11-23T12:54:56.438Z,2.80
2018-11-23T12:55:56.419Z,3.40
2018-11-23T12:56:56.411Z,3.50
2018-11-23T12:57:56.407Z,4.30
2018-11-23T12:58:56.391Z,3.40
2018-11-23T12:59:56.376Z,3.70
2018-11-23T13:00:56.374Z,3.60